Time;durP1;ratioP1;P1;durP2;ratioP2;P2;SDS_P1;SDS_P2;PMS_P1;PMS_P2;Temp;Humidity;BMP_temperature;BMP_pressure;BME280_temperature;BME280_humidity;BME280_pressure;Samples;Min_cycle;Max_cycle;Signal;HPM_P1;HPM_P2
2024/01/03 00:00:55;;;;;;;;;3.33;3.33;;;;;12.53;100.00;99116.50;4925516;28;45476;-81
2024/01/03 00:03:22;;;;;;;;;1.50;1.50;;;;;12.61;100.00;99122.56;4922931;28;47119;-81
2024/01/03 00:05:48;;;;;;;;;3.00;2.00;;;;;12.58;100.00;99116.41;4925153;28;45862;-81
2024/01/03 00:08:29;;;;;;;;;3.00;2.50;;;;;12.71;100.00;99106.38;4923694;28;45529;-81
2024/01/03 00:10:56;;;;;;;;;3.00;2.00;;;;;12.59;100.00;99103.03;4925100;28;45738;-82
2024/01/03 00:13:33;;;;;;;;;6.00;2.00;;;;;12.76;100.00;99124.00;4925548;28;45533;-82
2024/01/03 00:16:19;;;;;;;;;3.50;1.50;;;;;12.77;100.00;99114.25;4921539;28;45536;-81
2024/01/03 00:18:50;;;;;;;;;4.00;1.00;;;;;12.84;100.00;99134.53;4921326;28;45406;-81
2024/01/03 00:21:23;;;;;;;;;5.25;2.00;;;;;12.87;100.00;99129.16;4922794;28;45537;-81
2024/01/03 00:24:10;;;;;;;;;5.00;1.75;;;;;12.88;100.00;99117.56;4921507;28;46105;-81
2024/01/03 00:26:40;;;;;;;;;2.00;0.75;;;;;12.87;100.00;99139.81;4922356;28;45466;-81
2024/01/03 00:29:30;;;;;;;;;1.25;1.00;;;;;12.91;100.00;99145.97;4922587;28;45413;-81
2024/01/03 00:31:56;;;;;;;;;1.75;1.75;;;;;12.84;100.00;99150.53;4920586;28;45591;-81
2024/01/03 00:34:21;;;;;;;;;4.75;1.00;;;;;12.87;100.00;99145.16;4924441;28;45465;-81
2024/01/03 00:36:51;;;;;;;;;2.50;1.25;;;;;12.92;100.00;99131.72;4921463;28;46019;-81
2024/01/03 00:39:35;;;;;;;;;8.50;2.25;;;;;13.01;100.00;99124.38;4922451;28;44800;-81
2024/01/03 00:42:00;;;;;;;;;1.50;1.50;;;;;12.87;100.00;99134.50;4922822;28;45437;-81
2024/01/03 00:44:26;;;;;;;;;0.00;0.00;;;;;12.88;100.00;99114.00;4920224;28;45313;-81
2024/01/03 00:46:54;;;;;;;;;2.50;1.50;;;;;12.95;100.00;99116.53;4921521;28;45468;-80
2024/01/03 00:49:20;;;;;;;;;2.00;2.00;;;;;12.80;100.00;99115.06;4920655;28;45409;-82
2024/01/03 00:51:49;;;;;;;;;5.00;3.00;;;;;12.91;100.00;99120.16;4939452;28;45506;-82
2024/01/03 00:54:18;;;;;;;;;3.25;2.00;;;;;12.85;100.00;99111.44;4924208;28;47256;-82
2024/01/03 00:56:45;;;;;;;;;3.00;3.00;;;;;12.82;100.00;99112.34;4924871;28;46099;-82
2024/01/03 00:59:10;;;;;;;;;3.00;2.00;;;;;12.76;100.00;99123.16;4925261;28;45766;-81
2024/01/03 01:01:36;;;;;;;;;5.00;2.00;;;;;12.77;100.00;99132.91;4941603;28;45417;-82
2024/01/03 01:04:02;;;;;;;;;4.25;1.75;;;;;12.77;100.00;99128.47;4908256;28;47221;-82
2024/01/03 01:06:28;;;;;;;;;2.25;2.25;;;;;12.84;100.00;99129.19;4942014;28;45460;-81
2024/01/03 01:08:54;;;;;;;;;4.25;3.00;;;;;12.84;100.00;99120.31;4923228;28;45452;-82
2024/01/03 01:11:19;;;;;;;;;2.25;2.25;;;;;12.85;100.00;99122.97;4943037;28;45436;-82
2024/01/03 01:13:44;;;;;;;;;8.50;2.00;;;;;12.84;100.00;99112.31;4943136;28;45605;-81
2024/01/03 01:16:10;;;;;;;;;7.00;2.00;;;;;12.92;100.00;99121.91;4926702;28;45906;-81
2024/01/03 01:18:38;;;;;;;;;4.00;2.00;;;;;12.97;100.00;99111.16;4937308;28;45505;-81
2024/01/03 01:21:03;;;;;;;;;2.50;2.00;;;;;12.94;100.00;99114.75;4903528;28;45747;-81
2024/01/03 01:23:35;;;;;;;;;2.50;1.50;;;;;12.96;100.00;99118.25;4921783;28;45342;-81
2024/01/03 01:26:03;;;;;;;;;3.00;3.00;;;;;13.05;100.00;99124.31;4921984;28;45408;-81
2024/01/03 01:28:28;;;;;;;;;4.00;1.00;;;;;12.98;100.00;99113.78;4923307;28;45776;-81
2024/01/03 01:30:54;;;;;;;;;1.50;1.50;;;;;12.99;100.00;99112.88;4920377;28;45496;-82
2024/01/03 01:33:19;;;;;;;;;3.25;2.75;;;;;13.00;100.00;99114.59;4920297;28;47216;-81
2024/01/03 01:35:45;;;;;;;;;1.50;1.50;;;;;12.92;100.00;99113.91;4909194;28;45404;-81
2024/01/03 01:38:11;;;;;;;;;2.25;2.00;;;;;13.06;100.00;99123.41;4927948;28;45358;-81
2024/01/03 01:40:37;;;;;;;;;4.75;4.00;;;;;13.00;100.00;99117.28;4926496;28;45840;-82
2024/01/03 01:43:02;;;;;;;;;6.25;3.00;;;;;12.98;100.00;99111.09;4926635;28;46053;-82
2024/01/03 01:45:27;;;;;;;;;2.75;2.50;;;;;12.97;100.00;99130.72;4909928;28;45611;-81
2024/01/03 01:47:53;;;;;;;;;2.00;2.00;;;;;13.06;100.00;99124.28;4926689;28;45528;-81
2024/01/03 01:50:20;;;;;;;;;4.00;2.00;;;;;13.14;100.00;99126.78;4904368;29;46475;-81
2024/01/03 01:52:47;;;;;;;;;2.00;1.50;;;;;13.10;100.00;99114.41;4904746;29;48139;-81
2024/01/03 01:55:13;;;;;;;;;4.75;3.75;;;;;13.13;100.00;99104.56;4906428;29;45433;-81
2024/01/03 01:57:40;;;;;;;;;3.75;2.00;;;;;13.20;100.00;99121.31;4907084;28;45673;-81
2024/01/03 02:00:07;;;;;;;;;4.50;2.75;;;;;13.15;100.00;99107.19;4907609;28;45432;-81
2024/01/03 02:02:35;;;;;;;;;5.75;2.75;;;;;13.19;100.00;99108.88;4930231;28;46506;-82
2024/01/03 02:05:02;;;;;;;;;4.50;1.25;;;;;13.14;100.00;99111.63;4930872;28;44768;-81
2024/01/03 02:07:30;;;;;;;;;1.25;1.00;;;;;13.18;100.00;99105.31;4929878;28;44977;-82
2024/01/03 02:09:59;;;;;;;;;2.75;2.00;;;;;13.24;100.00;99112.31;4929976;28;44894;-81
2024/01/03 02:12:28;;;;;;;;;4.25;3.00;;;;;13.27;100.00;99117.59;4945336;28;55626;-82
2024/01/03 02:14:55;;;;;;;;;3.50;2.25;;;;;13.17;100.00;99105.38;4929615;28;44958;-82
2024/01/03 02:17:22;;;;;;;;;6.25;2.50;;;;;13.23;100.00;99105.25;4930509;28;44823;-82
2024/01/03 02:19:48;;;;;;;;;3.00;2.00;;;;;13.32;100.00;99112.19;4929552;28;44747;-81
2024/01/03 02:22:15;;;;;;;;;4.50;2.75;;;;;13.36;100.00;99106.72;4930377;28;45375;-81
2024/01/03 02:24:40;;;;;;;;;1.50;1.00;;;;;13.32;100.00;99097.03;4931185;28;44788;-82
2024/01/03 02:27:06;;;;;;;;;2.25;2.25;;;;;13.27;100.00;99090.91;4929916;28;44894;-81
2024/01/03 02:29:31;;;;;;;;;4.00;2.00;;;;;13.28;100.00;99102.44;4930896;28;44719;-82
2024/01/03 02:31:56;;;;;;;;;2.25;2.25;;;;;13.30;100.00;99112.22;4929716;28;47256;-82
2024/01/03 02:34:21;;;;;;;;;5.00;3.75;;;;;13.25;100.00;99105.19;4929688;28;44758;-81
2024/01/03 02:36:51;;;;;;;;;2.25;2.25;;;;;13.32;100.00;99105.03;4930584;28;44732;-82
2024/01/03 02:39:17;;;;;;;;;3.25;3.00;;;;;13.17;100.00;99110.72;4930456;28;44874;-82
2024/01/03 02:41:42;;;;;;;;;3.50;2.00;;;;;13.14;100.00;99108.09;4945076;28;50593;-81
2024/01/03 02:44:07;;;;;;;;;3.50;2.75;;;;;13.13;100.00;99099.22;4930508;28;44835;-82
2024/01/03 02:46:33;;;;;;;;;2.75;1.75;;;;;13.16;100.00;99104.47;4929015;28;45015;-82
2024/01/03 02:48:58;;;;;;;;;5.00;3.25;;;;;13.14;100.00;99098.28;4929674;28;45038;-82
2024/01/03 02:51:24;;;;;;;;;9.25;5.50;;;;;13.18;100.00;99091.97;4942221;28;46885;-82
2024/01/03 02:53:49;;;;;;;;;7.75;5.25;;;;;13.20;100.00;99111.50;4949161;28;45215;-82
2024/01/03 02:56:15;;;;;;;;;1.75;1.50;;;;;13.18;100.00;99085.75;4949417;28;45386;-81
2024/01/03 02:58:41;;;;;;;;;3.50;1.75;;;;;13.16;100.00;99095.59;4932823;28;44904;-81
2024/01/03 03:01:07;;;;;;;;;3.00;2.00;;;;;13.20;100.00;99086.59;4932289;28;47057;-81
2024/01/03 03:03:33;;;;;;;;;4.50;4.00;;;;;13.17;100.00;99078.69;4916861;28;45229;-81
2024/01/03 03:05:58;;;;;;;;;3.00;1.00;;;;;13.19;100.00;99090.19;4932199;28;44905;-81
2024/01/03 03:08:23;;;;;;;;;4.25;3.00;;;;;13.17;100.00;99079.56;4949324;28;44775;-81
2024/01/03 03:10:49;;;;;;;;;6.25;4.25;;;;;13.18;100.00;99078.63;4948647;28;45157;-81
2024/01/03 03:13:14;;;;;;;;;4.00;2.00;;;;;13.19;100.00;99083.06;4948819;28;44765;-81
2024/01/03 03:15:42;;;;;;;;;4.00;1.25;;;;;13.16;100.00;99075.13;4932101;28;44797;-81
2024/01/03 03:18:07;;;;;;;;;2.75;2.00;;;;;13.15;100.00;99064.50;4948038;28;44925;-81
2024/01/03 03:20:33;;;;;;;;;3.50;2.00;;;;;13.09;100.00;99057.50;4931923;28;46252;-81
2024/01/03 03:22:58;;;;;;;;;3.50;2.00;;;;;13.11;100.00;99068.13;4948779;28;44822;-81
2024/01/03 03:25:24;;;;;;;;;0.00;0.00;;;;;13.09;100.00;99060.16;4948803;28;45147;-80
2024/01/03 03:27:50;;;;;;;;;5.25;2.25;;;;;13.06;100.00;99064.69;4932053;28;44809;-81
2024/01/03 03:30:15;;;;;;;;;1.25;1.00;;;;;13.04;100.00;99047.84;4948926;28;45259;-81
2024/01/03 03:32:44;;;;;;;;;2.75;2.75;;;;;13.00;100.00;99039.88;4948461;28;44946;-82
2024/01/03 03:35:10;;;;;;;;;4.00;2.75;;;;;12.99;100.00;99051.50;4949161;28;44811;-82
2024/01/03 03:37:35;;;;;;;;;0.50;0.25;;;;;12.96;100.00;99038.22;4948115;28;44895;-81
2024/01/03 03:40:01;;;;;;;;;2.50;2.00;;;;;12.97;100.00;99039.97;4931136;28;46954;-81
2024/01/03 03:42:26;;;;;;;;;2.00;2.00;;;;;12.95;100.00;99031.13;4947327;28;44847;-81
2024/01/03 03:44:54;;;;;;;;;1.25;1.00;;;;;13.01;100.00;99038.13;4948763;28;45106;-81
2024/01/03 03:47:19;;;;;;;;;3.75;2.25;;;;;12.95;100.00;99041.81;4947263;28;44852;-81
2024/01/03 03:49:44;;;;;;;;;1.75;1.75;;;;;12.99;100.00;99042.63;4947007;28;47242;-81
2024/01/03 03:52:10;;;;;;;;;3.00;3.00;;;;;13.05;100.00;99042.47;4947120;28;44764;-82
2024/01/03 03:54:35;;;;;;;;;0.00;0.00;;;;;13.04;100.00;99032.69;4948496;28;44798;-81
2024/01/03 03:57:08;;;;;;;;;2.00;0.50;;;;;13.19;100.00;99051.03;4931399;28;44843;-81
2024/01/03 03:59:34;;;;;;;;;0.25;0.25;;;;;13.09;100.00;99048.59;4931197;28;47118;-81
2024/01/03 04:02:02;;;;;;;;;1.25;1.00;;;;;13.05;100.00;99045.16;4948054;28;44823;-81
2024/01/03 04:04:27;;;;;;;;;1.00;1.00;;;;;13.04;100.00;99050.50;4947261;28;45261;-81
2024/01/03 04:06:53;;;;;;;;;0.75;0.50;;;;;13.02;100.00;99048.75;4946960;28;44872;-81
2024/01/03 04:09:19;;;;;;;;;0.50;0.25;;;;;13.03;100.00;99060.31;4946882;28;53968;-81
2024/01/03 04:11:45;;;;;;;;;0.25;0.25;;;;;13.05;100.00;99055.81;4948753;28;44776;-82
2024/01/03 04:17:33;;;;;;;;;0.75;0.75;;;;;13.06;100.00;99073.56;4948339;28;44696;-82
2024/01/03 04:19:59;;;;;;;;;2.00;0.00;;;;;13.07;100.00;99071.78;4947051;28;45022;-82
2024/01/03 04:22:25;;;;;;;;;0.00;0.00;;;;;12.99;100.00;99048.81;4946818;28;44757;-81
2024/01/03 04:24:51;;;;;;;;;0.50;0.00;;;;;13.11;100.00;99057.44;4931179;28;44816;-82
2024/01/03 04:27:17;;;;;;;;;1.75;0.50;;;;;13.01;100.00;99073.69;4946791;28;45003;-82
2024/01/03 04:29:42;;;;;;;;;2.00;0.25;;;;;12.95;100.00;99065.81;4947875;28;45047;-81
2024/01/03 04:32:07;;;;;;;;;0.00;0.00;;;;;12.86;100.00;99065.16;4931136;28;45058;-82
2024/01/03 04:34:33;;;;;;;;;0.00;0.00;;;;;12.84;100.00;99080.31;4947495;28;45123;-82
2024/01/03 04:36:58;;;;;;;;;2.00;0.75;;;;;12.80;100.00;99085.72;4930971;28;44894;-81
2024/01/03 04:39:24;;;;;;;;;2.25;2.00;;;;;12.80;100.00;99085.72;4946225;28;47279;-81
2024/01/03 04:42:36;;;;;;;;;3.00;0.50;;;;;12.95;100.00;99079.16;4930629;28;50369;-82
2024/01/03 04:45:02;;;;;;;;;2.00;2.00;;;;;12.76;100.00;99091.13;4946722;28;44773;-82
2024/01/03 04:47:27;;;;;;;;;0.00;0.00;;;;;12.77;100.00;99108.91;4946127;28;44976;-81
2024/01/03 04:49:54;;;;;;;;;1.00;0.00;;;;;12.80;100.00;99106.16;4929965;28;47275;-81
2024/01/03 04:52:20;;;;;;;;;2.00;2.00;;;;;12.83;100.00;99097.25;4945650;28;44791;-82
2024/01/03 04:54:46;;;;;;;;;0.25;0.25;;;;;12.81;100.00;99102.59;4945801;28;44832;-82
2024/01/03 04:57:12;;;;;;;;;1.50;1.50;;;;;12.81;100.00;99107.94;4947275;28;44679;-82
2024/01/03 04:59:38;;;;;;;;;2.50;2.00;;;;;12.83;100.00;99121.25;4945490;28;46764;-82
2024/01/03 05:02:03;;;;;;;;;0.00;0.00;;;;;12.79;100.00;99089.28;4947019;28;45060;-82
2024/01/03 05:04:29;;;;;;;;;2.50;2.00;;;;;12.82;100.00;99099.00;4946282;28;44807;-82
2024/01/03 05:06:54;;;;;;;;;2.00;0.00;;;;;12.87;100.00;99113.16;4946368;28;44798;-82
2024/01/03 05:09:19;;;;;;;;;3.00;1.00;;;;;12.94;100.00;99101.41;4928628;28;47141;-81
2024/01/03 05:11:45;;;;;;;;;1.00;1.00;;;;;13.04;100.00;99114.56;4929372;28;44860;-82
2024/01/03 05:14:12;;;;;;;;;1.75;1.25;;;;;13.09;100.00;99108.22;4947274;28;45177;-82
2024/01/03 05:16:37;;;;;;;;;3.00;1.00;;;;;13.11;100.00;99110.81;4947052;28;44820;-82
2024/01/03 05:19:02;;;;;;;;;4.50;2.00;;;;;13.11;100.00;99113.50;4953689;28;44971;-83
2024/01/03 05:21:28;;;;;;;;;1.50;1.50;;;;;13.14;100.00;99116.09;4965623;28;44868;-82
2024/01/03 05:23:53;;;;;;;;;1.00;1.00;;;;;13.16;100.00;99124.97;4966232;28;44872;-82
2024/01/03 05:26:18;;;;;;;;;0.50;0.50;;;;;13.14;100.00;99116.09;4967166;28;44769;-82
2024/01/03 05:28:44;;;;;;;;;0.00;0.00;;;;;13.06;100.00;99110.06;4966066;28;45149;-82
2024/01/03 05:31:10;;;;;;;;;0.75;0.75;;;;;13.05;100.00;99114.53;4949682;28;44874;-82
2024/01/03 05:33:35;;;;;;;;;0.25;0.25;;;;;13.01;100.00;99127.06;4965741;28;44822;-82
2024/01/03 05:36:03;;;;;;;;;3.00;0.00;;;;;13.09;100.00;99118.00;4949153;28;44932;-82
2024/01/03 05:38:29;;;;;;;;;0.00;0.00;;;;;12.97;100.00;99124.50;4965406;28;45124;-81
2024/01/03 05:40:54;;;;;;;;;0.00;0.00;;;;;12.97;100.00;99130.72;4948922;28;44959;-81
2024/01/03 05:43:21;;;;;;;;;1.00;1.00;;;;;12.93;100.00;99126.34;4949086;28;44769;-81
2024/01/03 05:45:46;;;;;;;;;0.00;0.00;;;;;12.93;100.00;99144.16;4965540;28;44741;-81
2024/01/03 05:48:11;;;;;;;;;0.75;0.75;;;;;12.88;100.00;99146.91;4965940;28;45272;-81
2024/01/03 05:50:37;;;;;;;;;1.00;1.00;;;;;12.86;100.00;99153.19;4944859;28;45410;-81
2024/01/03 05:53:02;;;;;;;;;0.00;0.00;;;;;12.83;100.00;99148.81;4945463;28;44804;-82
2024/01/03 05:55:28;;;;;;;;;0.00;0.00;;;;;12.76;100.00;99155.16;4946646;28;44833;-81
2024/01/03 05:57:53;;;;;;;;;0.25;0.25;;;;;12.75;100.00;99156.09;4945275;28;47127;-82
2024/01/03 06:00:20;;;;;;;;;0.00;0.00;;;;;12.72;100.00;99159.66;4945849;28;45138;-81
2024/01/03 06:02:45;;;;;;;;;0.00;0.00;;;;;12.67;100.00;99147.34;4946015;28;44850;-81
2024/01/03 06:05:16;;;;;;;;;0.00;0.00;;;;;12.72;100.00;99169.47;4946094;28;44867;-82
2024/01/03 06:07:42;;;;;;;;;0.75;0.00;;;;;12.73;100.00;99168.56;4945195;28;47366;-82
2024/01/03 06:10:07;;;;;;;;;0.50;0.25;;;;;12.74;100.00;99154.31;4945124;28;44918;-82
2024/01/03 06:12:34;;;;;;;;;0.75;0.75;;;;;12.75;100.00;99158.75;4946363;28;45206;-81
2024/01/03 06:14:59;;;;;;;;;2.00;1.00;;;;;12.74;100.00;99149.84;4946177;28;44743;-81
2024/01/03 06:17:25;;;;;;;;;1.00;1.00;;;;;12.71;100.00;99155.25;4945382;28;47252;-81
2024/01/03 06:19:50;;;;;;;;;2.25;1.00;;;;;12.68;100.00;99147.31;4943795;28;49087;-81
2024/01/03 06:22:15;;;;;;;;;1.50;0.50;;;;;12.64;100.00;99136.75;4963179;28;44807;-81
2024/01/03 06:24:40;;;;;;;;;1.75;1.00;;;;;12.60;100.00;99152.81;4948575;28;45292;-82
2024/01/03 06:30:28;;;;;;;;;2.50;1.00;;;;;12.52;100.00;99148.53;4949484;28;44885;-81
2024/01/03 06:32:53;;;;;;;;;3.50;2.25;;;;;12.53;100.00;99153.84;4949223;28;44867;-81
2024/01/03 06:35:19;;;;;;;;;2.75;1.00;;;;;12.54;100.00;99154.69;4948403;28;44801;-81
2024/01/03 06:37:44;;;;;;;;;3.00;1.25;;;;;12.57;100.00;99165.31;4949608;28;45071;-81
2024/01/03 06:40:10;;;;;;;;;3.00;1.25;;;;;12.54;100.00;99168.94;4947917;28;44810;-81
2024/01/03 06:42:35;;;;;;;;;2.75;1.75;;;;;12.87;100.00;99166.50;4949966;28;44809;-82
2024/01/03 06:45:01;;;;;;;;;2.50;2.50;;;;;12.60;100.00;99168.81;4949441;28;44799;-81
2024/01/03 06:47:33;;;;;;;;;5.00;3.00;;;;;12.60;100.00;99171.50;4948666;28;45150;-81
2024/01/03 06:49:58;;;;;;;;;2.25;1.00;;;;;12.54;100.00;99179.59;4948476;28;45675;-81
2024/01/03 06:52:27;;;;;;;;;5.00;2.00;;;;;12.67;100.00;99174.03;5012027;23;46668;-82
2024/01/03 06:54:57;;;;;;;;;3.50;3.00;;;;;12.52;100.00;99169.84;4932639;28;45382;-82
2024/01/03 06:57:22;;;;;;;;;4.25;2.00;;;;;12.53;100.00;99176.97;4949122;28;45342;-81
2024/01/03 06:59:47;;;;;;;;;6.00;3.00;;;;;12.52;100.00;99183.19;4948077;28;45248;-81
2024/01/03 07:02:13;;;;;;;;;2.25;2.00;;;;;12.51;100.00;99181.44;4948929;28;44931;-82
2024/01/03 07:04:38;;;;;;;;;3.25;3.00;;;;;12.51;100.00;99173.44;4948152;28;44825;-82
2024/01/03 07:07:04;;;;;;;;;3.50;2.25;;;;;12.51;100.00;99181.44;4948181;28;47153;-82
2024/01/03 07:09:29;;;;;;;;;3.75;1.00;;;;;12.49;100.00;99165.47;4948910;28;44743;-81
2024/01/03 07:11:55;;;;;;;;;4.75;3.75;;;;;12.52;100.00;99176.09;4947796;28;44976;-82
2024/01/03 07:14:20;;;;;;;;;0.25;0.25;;;;;12.48;100.00;99166.38;4948488;28;44820;-81
2024/01/03 07:16:47;;;;;;;;;4.25;4.25;;;;;12.49;100.00;99176.13;4947995;28;45663;-81
2024/01/03 07:19:12;;;;;;;;;2.75;2.75;;;;;12.48;100.00;99169.06;4947919;28;44843;-80
2024/01/03 07:21:37;;;;;;;;;2.25;2.00;;;;;12.49;100.00;99170.81;4947865;28;51014;-81
2024/01/03 07:24:03;;;;;;;;;1.00;1.00;;;;;12.50;100.00;99167.25;4947002;28;44777;-81
2024/01/03 07:26:30;;;;;;;;;3.25;1.50;;;;;12.50;100.00;99183.25;4947602;28;46610;-81
2024/01/03 07:28:55;;;;;;;;;2.50;2.00;;;;;12.50;100.00;99177.91;4947918;28;44901;-81
2024/01/03 07:31:21;;;;;;;;;3.50;2.00;;;;;12.55;100.00;99178.69;4948722;28;45324;-81
2024/01/03 07:33:50;;;;;;;;;2.00;2.00;;;;;12.72;100.00;99185.47;4947982;28;44880;-81
2024/01/03 07:36:15;;;;;;;;;3.50;3.50;;;;;12.54;100.00;99173.38;4948092;28;45631;-82
2024/01/03 07:38:44;;;;;;;;;6.50;2.00;;;;;12.65;100.00;99171.38;4947297;28;44915;-82
2024/01/03 07:41:10;;;;;;;;;4.50;3.25;;;;;12.58;100.00;99186.63;4948054;28;45013;-83
2024/01/03 07:43:35;;;;;;;;;4.25;2.25;;;;;12.54;100.00;99179.59;4947763;28;44812;-82
2024/01/03 07:46:01;;;;;;;;;3.25;3.00;;;;;12.54;100.00;99186.69;4948334;28;45080;-82
2024/01/03 07:48:26;;;;;;;;;4.00;2.75;;;;;12.56;100.00;99192.88;4947246;28;44958;-82
2024/01/03 07:50:52;;;;;;;;;4.00;1.75;;;;;12.54;100.00;99184.03;4948833;28;45234;-82
2024/01/03 07:53:24;;;;;;;;;7.00;4.00;;;;;12.67;100.00;99196.25;4946117;28;44875;-81
2024/01/03 07:58:26;;;;;;;;;4.75;3.00;;;;;12.57;100.00;99186.66;5531885;23;45821;-84
2024/01/03 08:03:25;;;;;;;;;6.00;4.50;;;;;12.57;100.00;99195.53;5330848;23;46349;-81
2024/01/03 08:05:50;;;;;;;;;3.00;1.25;;;;;12.65;100.00;99200.72;4945844;28;45053;-82
2024/01/03 08:10:53;;;;;;;;;3.25;3.00;;;;;12.76;100.00;99219.19;4825481;23;45855;-81
2024/01/03 08:13:18;;;;;;;;;4.00;1.75;;;;;12.77;100.00;99213.81;4929311;28;44895;-86
2024/01/03 08:15:46;;;;;;;;;3.00;1.50;;;;;12.86;100.00;99225.22;4953089;28;45566;-81
2024/01/03 08:18:13;;;;;;;;;2.50;1.00;;;;;12.79;100.00;99228.00;4963542;28;44797;-81
2024/01/03 08:20:38;;;;;;;;;5.25;3.50;;;;;12.74;100.00;99221.88;4943078;28;44935;-82
2024/01/03 08:23:07;;;;;;;;;5.00;3.75;;;;;12.93;100.00;99226.88;4929825;28;45123;-82
2024/01/03 08:25:35;;;;;;;;;1.75;1.75;;;;;12.74;100.00;99229.00;4927098;28;46795;-81
2024/01/03 08:28:05;;;;;;;;;2.50;1.75;;;;;12.76;100.00;99227.19;4933403;28;45004;-82
2024/01/03 08:33:07;;;;;;;;;1.00;1.00;;;;;12.44;100.00;99203.78;1214332;26;46021;-83
2024/01/03 08:35:34;;;;;;;;;1.00;1.00;;;;;12.51;100.00;99221.44;4958753;28;47467;-81
2024/01/03 08:37:59;;;;;;;;;1.75;1.25;;;;;12.55;100.00;99234.69;4961132;28;45309;-81
2024/01/03 08:40:27;;;;;;;;;1.50;1.00;;;;;12.74;100.00;99231.66;4942218;28;44773;-81
2024/01/03 08:42:53;;;;;;;;;2.00;2.00;;;;;12.64;100.00;99220.28;4941244;28;44867;-81
2024/01/03 08:45:21;;;;;;;;;3.50;2.25;;;;;12.58;100.00;99205.31;4956479;28;47471;-80
2024/01/03 08:47:46;;;;;;;;;2.25;1.75;;;;;12.62;100.00;99224.78;4946430;28;45081;-80
2024/01/03 08:50:13;;;;;;;;;4.00;2.00;;;;;12.66;100.00;99218.47;4951769;28;44770;-81
2024/01/03 08:52:38;;;;;;;;;4.00;3.50;;;;;12.71;100.00;99224.63;4933570;28;44901;-81
2024/01/03 08:55:04;;;;;;;;;2.25;2.00;;;;;12.63;100.00;99191.88;4942116;28;47216;-81
2024/01/03 08:57:31;;;;;;;;;2.50;2.00;;;;;12.77;100.00;99228.97;4954328;28;44870;-81
2024/01/03 08:59:57;;;;;;;;;3.75;3.25;;;;;12.77;100.00;99223.63;4936779;28;44836;-82
2024/01/03 09:02:23;;;;;;;;;4.00;2.50;;;;;12.80;100.00;99215.53;4946323;28;44874;-81
2024/01/03 09:04:48;;;;;;;;;6.50;4.00;;;;;12.78;100.00;99212.03;4947276;28;45377;-80
2024/01/03 09:07:14;;;;;;;;;2.00;1.00;;;;;12.84;100.00;99211.03;4929262;28;44832;-80
2024/01/03 09:09:40;;;;;;;;;6.00;3.00;;;;;12.82;100.00;99203.06;4945577;28;44892;-81
2024/01/03 09:12:07;;;;;;;;;11.00;8.67;;;;;12.93;100.00;99203.72;4953029;28;44915;-82
2024/01/03 09:14:32;;;;;;;;;4.00;2.00;;;;;12.83;100.00;99195.94;4946817;28;45080;-82
2024/01/03 09:16:58;;;;;;;;;6.50;2.75;;;;;12.89;100.00;99217.19;4943482;28;45185;-82
2024/01/03 09:19:23;;;;;;;;;3.00;0.50;;;;;12.89;100.00;99212.72;4964211;28;45119;-81
2024/01/03 09:21:59;;;;;;;;;4.50;3.00;;;;;12.95;100.00;99217.91;4926526;28;45044;-82
2024/01/03 09:24:27;;;;;;;;;5.75;4.25;;;;;12.95;100.00;99215.25;4947376;28;45666;-80
2024/01/03 09:26:52;;;;;;;;;4.25;3.00;;;;;12.98;100.00;99212.50;4964211;28;44732;-83
2024/01/03 09:29:18;;;;;;;;;4.00;3.00;;;;;12.99;100.00;99216.94;4964365;28;45125;-82
2024/01/03 09:31:44;;;;;;;;;3.50;3.50;;;;;13.02;100.00;99216.88;4961115;28;44860;-79
2024/01/03 09:34:10;;;;;;;;;4.50;3.00;;;;;13.16;100.00;99232.59;4923225;28;47305;-79
2024/01/03 09:36:35;;;;;;;;;8.25;4.25;;;;;13.27;100.00;99232.41;4943247;28;44888;-80
2024/01/03 09:39:00;;;;;;;;;4.00;1.00;;;;;13.35;100.00;99227.81;4922646;28;45148;-81
2024/01/03 09:41:29;;;;;;;;;10.67;4.67;;;;;13.56;100.00;99225.56;4906334;28;44797;-79
2024/01/03 09:44:36;;;;;;;;;4.75;4.75;;;;;13.65;100.00;99222.66;4927184;28;45282;-83
2024/01/03 09:47:03;;;;;;;;;4.25;4.25;;;;;13.47;100.00;99215.97;4925575;28;44978;-81
2024/01/03 09:49:29;;;;;;;;;2.00;2.00;;;;;13.47;100.00;99229.34;4925235;28;45101;-81
2024/01/03 09:51:55;;;;;;;;;3.00;3.00;;;;;13.46;100.00;99219.56;4922437;28;44981;-82
2024/01/03 09:54:21;;;;;;;;;4.75;1.75;;;;;13.47;100.00;99228.44;4915544;28;46950;-81
2024/01/03 09:56:47;;;;;;;;;4.00;1.25;;;;;13.45;100.00;99228.47;4941251;28;45871;-79
2024/01/03 09:59:14;;;;;;;;;3.67;3.33;;;;;13.52;100.00;99226.56;4933091;28;44844;-80
2024/01/03 10:01:39;;;;;;;;;3.67;2.00;;;;;13.68;100.00;99235.97;4944898;28;44855;-80
2024/01/03 10:04:06;;;;;;;;;6.33;4.67;;;;;13.78;100.00;99221.50;4936444;28;46915;-81
2024/01/03 10:06:32;;;;;;;;;2.75;2.50;;;;;13.79;100.00;99227.69;4940649;28;44845;-80
2024/01/03 10:09:00;;;;;;;;;2.25;2.25;;;;;13.90;100.00;99230.16;4931019;28;45424;-80
2024/01/03 10:11:28;;;;;;;;;5.00;2.67;;;;;13.82;100.00;99227.66;4926477;28;45027;-80
2024/01/03 10:13:56;;;;;;;;;2.75;2.75;;;;;13.96;100.00;99238.00;4946635;28;45179;-81
2024/01/03 10:16:31;;;;;;;;;3.75;2.50;;;;;13.96;100.00;99236.22;4936085;28;45086;-80
2024/01/03 10:21:32;;;;;;;;;3.25;2.00;;;;;13.74;100.00;99245.66;5021328;23;46198;-80
2024/01/03 10:24:11;;;;;;;;;3.67;2.00;;;;;13.68;100.00;99201.25;4961327;28;45433;-80
2024/01/03 10:26:38;;;;;;;;;8.75;2.75;;;;;13.54;100.00;99190.00;4933108;28;44832;-82
2024/01/03 10:29:19;;;;;;;;;7.67;5.67;;;;;13.82;100.00;99221.44;4942963;28;44822;-82
2024/01/03 10:32:38;;;;;;;;;4.33;2.67;;;;;13.80;100.00;99208.97;4949664;28;44914;-82
2024/01/03 10:35:15;;;;;;;;;1.75;1.25;;;;;13.78;100.00;99209.94;4931593;28;47133;-82
2024/01/03 10:37:41;;;;;;;;;2.00;2.00;;;;;13.70;100.00;99219.91;4949338;28;44849;-81
2024/01/03 11:01:24;;;;;;;;;4.25;4.25;;;;;14.74;100.00;99213.75;5603878;23;46944;-84
2024/01/03 11:07:10;;;;;;;;;3.00;3.00;;;;;14.75;100.00;99184.28;5269431;23;46691;-81
2024/01/03 11:26:01;;;;;;;;;4.00;2.00;;;;;15.27;100.00;99160.47;1142156;23;45360;-84
2024/01/03 11:36:43;;;;;;;;;6.50;3.75;;;;;15.18;100.00;99107.19;5777016;23;46721;-84
2024/01/03 11:39:43;;;;;;;;;3.25;3.00;;;;;15.29;100.00;99129.16;4949620;28;47311;-83
2024/01/03 11:50:12;;;;;;;;;8.00;2.00;;;;;15.09;100.00;99075.31;5307557;23;46431;-84
2024/01/03 11:55:16;;;;;;;;;5.50;3.00;;;;;14.91;100.00;99076.78;5002248;23;44969;-82
2024/01/03 12:49:39;;;;;;;;;4.75;2.00;;;;;13.13;100.00;99023.63;5853940;23;46195;-83
2024/01/03 13:16:45;;;;;;;;;0.00;0.00;;;;;13.07;100.00;98970.34;5763160;23;46119;-82
2024/01/03 13:52:28;;;;;;;;;3.50;0.00;;;;;12.91;100.00;98959.22;5995719;23;46654;31
2024/01/03 13:54:53;;;;;;;;;0.50;0.50;;;;;12.72;100.00;98961.41;4889376;29;44838;-82
2024/01/03 13:57:20;;;;;;;;;2.00;1.00;;;;;12.56;100.00;98943.13;4877248;29;44839;-82
2024/01/03 14:28:22;;;;;;;;;0.25;0.00;;;;;13.32;100.00;98997.38;5411107;23;46963;-83
2024/01/03 14:30:55;;;;;;;;;0.00;0.00;;;;;13.36;100.00;98997.25;5119909;23;45478;-82
2024/01/03 14:38:44;;;;;;;;;0.50;0.50;;;;;13.27;100.00;99025.94;5521001;23;46790;-82
2024/01/03 14:47:28;;;;;;;;;3.00;0.00;;;;;13.35;100.00;99048.00;5596858;23;46237;-82
2024/01/03 14:49:57;;;;;;;;;2.75;0.00;;;;;13.14;100.00;99038.69;4971050;28;44713;-82
2024/01/03 14:52:22;;;;;;;;;0.00;0.00;;;;;13.07;100.00;99045.09;4971536;28;45045;-82
2024/01/03 14:54:49;;;;;;;;;1.00;1.00;;;;;13.08;100.00;99047.72;4953968;28;47151;-82
2024/01/03 14:57:15;;;;;;;;;2.00;0.50;;;;;13.01;100.00;99060.34;4954053;28;44859;-82
2024/01/03 14:59:47;;;;;;;;;0.00;0.00;;;;;13.10;100.00;99050.38;4971828;28;44701;-82
2024/01/03 15:02:19;;;;;;;;;1.00;1.00;;;;;13.21;100.00;99069.69;4971040;28;44748;-82
2024/01/03 15:04:47;;;;;;;;;1.00;0.00;;;;;13.11;100.00;99026.31;4970851;28;45427;-83
2024/01/03 15:07:13;;;;;;;;;0.25;0.25;;;;;13.18;100.00;99048.38;4970833;28;44695;-82
2024/01/03 15:09:38;;;;;;;;;2.00;0.00;;;;;13.26;100.00;99067.78;4965827;28;44862;-82
2024/01/03 15:12:06;;;;;;;;;3.25;2.75;;;;;13.37;100.00;99073.78;4990815;28;44788;-82
2024/01/03 15:54:30;;;;;;;;;2.00;0.25;;;;;12.96;100.00;99094.25;5214095;23;45214;-81